Check out our new PWSWeather beta!
PWSweather.com
Personal Weather Stations
Station Observations
PENICUIKWS
PenicuikGB

PenicuikGB

Lat: 55.830932, Lon: -3.224533000000065

Elevation: 166

Station Type: Fine Offset

http://weather.penicuik.org

High Low Average
Temperature 65.3°F18.5°C 46.4°F8.0°C 56.0°F13.3°C
Dew Point 62.9°F17.2°C 45.9°F7.7°C 53.7°F12.1°C
Winds 10.0 mph 16.1 kmh Calm Calm 2.0 mph SSW3.2 kmh SSW
Wind Gusts 15.9 mph25.6 kmh -- 4.0 mph6.4 kmh
Humidity 99% 77% 92%
Pressure 29.60 in1002.4 mb 29.37 in994.6 mb -
Precipitation 0.22 in5.6 mm - -
Hour Temp Dew Point Humidity Winds Wind Gusts Pressure Precip Precip Rate Daily Precip Total
12:00 AM 51.1°F10.6°C 48.8°F9.3°C 92% 3.3 mph NNE5.3 kmh NNE 6.0 mph9.7 kmh 29.50 in999.0 mb 0.00 in0.0 mm 0.00 in0.0 mm 0.00 in0.0 mm
12:15 AM 51.1°F10.6°C 48.8°F9.3°C 92% 2.8 mph WNW4.5 kmh WNW 7.6 mph12.2 kmh 29.50 in999.0 mb 0.00 in0.0 mm 0.00 in0.0 mm 0.00 in0.0 mm
12:30 AM 51.1°F10.6°C 48.5°F9.2°C 91% 1.9 mph N3.1 kmh N 3.8 mph6.1 kmh 29.51 in999.3 mb 0.00 in0.0 mm 0.00 in0.0 mm 0.00 in0.0 mm
12:45 AM 52.0°F11.1°C 49.4°F9.7°C 91% 4.2 mph SW6.8 kmh SW 10.7 mph17.2 kmh 29.51 in999.3 mb 0.01 in0.3 mm 0.04 in1.0 mm 0.01 in0.3 mm
01:00 AM 51.1°F10.6°C 48.8°F9.3°C 92% 2.6 mph NNW4.2 kmh NNW 5.4 mph8.7 kmh 29.51 in999.3 mb 0.01 in0.3 mm 0.00 in0.0 mm 0.01 in0.3 mm
01:15 AM 50.5°F10.3°C 48.3°F9.1°C 92% 1.4 mph NNW2.3 kmh NNW 3.1 mph5.0 kmh 29.51 in999.3 mb 0.01 in0.3 mm 0.00 in0.0 mm 0.01 in0.3 mm
01:30 AM 49.5°F9.7°C 47.2°F8.4°C 92% 0.5 mph NW0.8 kmh NW 1.6 mph2.6 kmh 29.52 in999.7 mb 0.01 in0.3 mm 0.00 in0.0 mm 0.01 in0.3 mm
01:45 AM 48.9°F9.4°C 47.0°F8.3°C 93% 0.7 mph N1.1 kmh N 2.2 mph3.5 kmh 29.51 in999.3 mb 0.00 in0.0 mm 0.00 in0.0 mm 0.01 in0.3 mm
02:00 AM 49.3°F9.6°C 47.6°F8.7°C 94% 1.0 mph WSW1.6 kmh WSW 1.6 mph2.6 kmh 29.52 in999.7 mb 0.00 in0.0 mm 0.00 in0.0 mm 0.01 in0.3 mm
02:15 AM 49.5°F9.7°C 48.1°F8.9°C 95% 1.2 mph NNW1.9 kmh NNW 2.2 mph3.5 kmh 29.51 in999.3 mb 0.00 in0.0 mm 0.00 in0.0 mm 0.01 in0.3 mm
02:30 AM 49.6°F9.8°C 48.5°F9.2°C 96% 1.0 mph NW1.6 kmh NW 3.1 mph5.0 kmh 29.52 in999.7 mb 0.00 in0.0 mm 0.00 in0.0 mm 0.01 in0.3 mm
02:45 AM 49.5°F9.7°C 48.4°F9.1°C 96% 0.6 mph NW1.0 kmh NW 1.6 mph2.6 kmh 29.52 in999.7 mb 0.00 in0.0 mm 0.00 in0.0 mm 0.01 in0.3 mm
03:00 AM 49.3°F9.6°C 48.5°F9.2°C 97% 1.4 mph N2.3 kmh N 2.2 mph3.5 kmh 29.52 in999.7 mb 0.00 in0.0 mm 0.00 in0.0 mm 0.01 in0.3 mm
03:15 AM 49.3°F9.6°C 48.5°F9.2°C 97% 1.0 mph NW1.6 kmh NW 1.6 mph2.6 kmh 29.52 in999.7 mb 0.00 in0.0 mm 0.00 in0.0 mm 0.01 in0.3 mm
03:30 AM 48.7°F9.3°C 47.9°F8.8°C 97% 0.2 mph N0.3 kmh N 2.2 mph3.5 kmh 29.52 in999.7 mb 0.00 in0.0 mm 0.00 in0.0 mm 0.01 in0.3 mm
03:45 AM 48.4°F9.1°C 47.6°F8.7°C 97% Calm Calm -- 29.52 in999.7 mb 0.00 in0.0 mm 0.00 in0.0 mm 0.01 in0.3 mm
04:00 AM 47.7°F8.7°C 47.1°F8.4°C 98% Calm Calm -- 29.52 in999.7 mb 0.00 in0.0 mm 0.00 in0.0 mm 0.01 in0.3 mm
04:15 AM 46.9°F8.3°C 46.4°F8.0°C 98% 0.2 mph SSW0.3 kmh SSW 0.7 mph1.1 kmh 29.52 in999.7 mb 0.00 in0.0 mm 0.00 in0.0 mm 0.01 in0.3 mm
04:30 AM 46.4°F8.0°C 45.9°F7.7°C 98% 0.5 mph SW0.8 kmh SW 1.6 mph2.6 kmh 29.53 in1000.0 mb 0.00 in0.0 mm 0.00 in0.0 mm 0.01 in0.3 mm
04:45 AM 46.4°F8.0°C 45.9°F7.7°C 98% 0.1 mph SW0.2 kmh SW 0.7 mph1.1 kmh 29.53 in1000.0 mb 0.00 in0.0 mm 0.00 in0.0 mm 0.01 in0.3 mm
05:00 AM 46.8°F8.2°C 46.2°F7.9°C 98% 0.1 mph SE0.2 kmh SE 0.7 mph1.1 kmh 29.53 in1000.0 mb 0.00 in0.0 mm 0.00 in0.0 mm 0.01 in0.3 mm
05:15 AM 47.7°F8.7°C 47.4°F8.6°C 99% 1.6 mph SSE2.6 kmh SSE 2.2 mph3.5 kmh 29.53 in1000.0 mb 0.00 in0.0 mm 0.00 in0.0 mm 0.01 in0.3 mm
05:30 AM 48.7°F9.3°C 48.2°F9.0°C 98% 0.4 mph SSE0.6 kmh SSE 0.7 mph1.1 kmh 29.53 in1000.0 mb 0.00 in0.0 mm 0.00 in0.0 mm 0.01 in0.3 mm
05:45 AM 50.5°F10.3°C 50.0°F10.0°C 98% 0.5 mph S0.8 kmh S 1.6 mph2.6 kmh 29.52 in999.7 mb 0.00 in0.0 mm 0.00 in0.0 mm 0.01 in0.3 mm
06:00 AM 50.7°F10.4°C 50.2°F10.1°C 98% 0.2 mph S0.3 kmh S 1.6 mph2.6 kmh 29.51 in999.3 mb 0.00 in0.0 mm 0.00 in0.0 mm 0.01 in0.3 mm
06:15 AM 51.1°F10.6°C 50.5°F10.3°C 98% Calm Calm -- 29.50 in999.0 mb 0.00 in0.0 mm 0.00 in0.0 mm 0.01 in0.3 mm
06:30 AM 52.2°F11.2°C 51.3°F10.7°C 97% 0.5 mph N0.8 kmh N 1.6 mph2.6 kmh 29.51 in999.3 mb 0.00 in0.0 mm 0.00 in0.0 mm 0.01 in0.3 mm
06:45 AM 53.8°F12.1°C 52.7°F11.5°C 96% 2.6 mph WSW4.2 kmh WSW 6.9 mph11.1 kmh 29.51 in999.3 mb 0.00 in0.0 mm 0.00 in0.0 mm 0.01 in0.3 mm
07:00 AM 54.5°F12.5°C 53.4°F11.9°C 96% 2.1 mph E3.4 kmh E 6.9 mph11.1 kmh 29.50 in999.0 mb 0.00 in0.0 mm 0.00 in0.0 mm 0.01 in0.3 mm
07:15 AM 54.9°F12.7°C 53.5°F11.9°C 95% 0.9 mph NW1.4 kmh NW 1.6 mph2.6 kmh 29.50 in999.0 mb 0.00 in0.0 mm 0.00 in0.0 mm 0.01 in0.3 mm
07:30 AM 55.2°F12.9°C 53.2°F11.8°C 93% 3.6 mph SE5.8 kmh SE 6.0 mph9.7 kmh 29.50 in999.0 mb 0.00 in0.0 mm 0.00 in0.0 mm 0.01 in0.3 mm
07:45 AM 56.1°F13.4°C 52.3°F11.3°C 87% 4.5 mph SSE7.2 kmh SSE 6.0 mph9.7 kmh 29.50 in999.0 mb 0.00 in0.0 mm 0.00 in0.0 mm 0.01 in0.3 mm
08:00 AM 57.0°F13.9°C 52.6°F11.4°C 85% 4.2 mph SSE6.8 kmh SSE 5.4 mph8.7 kmh 29.49 in998.6 mb 0.00 in0.0 mm 0.00 in0.0 mm 0.01 in0.3 mm
08:15 AM 57.2°F14.0°C 52.1°F11.2°C 83% 4.8 mph S7.7 kmh S 6.9 mph11.1 kmh 29.49 in998.6 mb 0.00 in0.0 mm 0.00 in0.0 mm 0.01 in0.3 mm
08:30 AM 58.5°F14.7°C 54.0°F12.2°C 85% 2.9 mph S4.7 kmh S 4.5 mph7.2 kmh 29.47 in998.0 mb 0.00 in0.0 mm 0.00 in0.0 mm 0.01 in0.3 mm
08:45 AM 59.7°F15.4°C 54.2°F12.3°C 82% 5.1 mph SE8.2 kmh SE 7.6 mph12.2 kmh 29.48 in998.3 mb 0.00 in0.0 mm 0.00 in0.0 mm 0.01 in0.3 mm
09:00 AM 59.5°F15.3°C 54.4°F12.4°C 83% 7.3 mph S11.7 kmh S 11.4 mph18.3 kmh 29.46 in997.6 mb 0.00 in0.0 mm 0.00 in0.0 mm 0.01 in0.3 mm
09:15 AM 58.8°F14.9°C 54.7°F12.6°C 86% 5.2 mph SSW8.4 kmh SSW 6.9 mph11.1 kmh 29.46 in997.6 mb 0.00 in0.0 mm 0.00 in0.0 mm 0.01 in0.3 mm
09:30 AM 61.2°F16.2°C 56.0°F13.3°C 83% 7.0 mph S11.3 kmh S 12.1 mph19.5 kmh 29.45 in997.3 mb 0.00 in0.0 mm 0.00 in0.0 mm 0.01 in0.3 mm
09:45 AM 62.1°F16.7°C 54.8°F12.7°C 77% 10.0 mph S16.1 kmh S 15.9 mph25.6 kmh 29.45 in997.3 mb 0.00 in0.0 mm 0.00 in0.0 mm 0.01 in0.3 mm
10:00 AM 61.0°F16.1°C 54.4°F12.4°C 79% 8.3 mph S13.4 kmh S 13.0 mph20.9 kmh 29.44 in997.0 mb 0.00 in0.0 mm 0.00 in0.0 mm 0.01 in0.3 mm
10:15 AM 61.3°F16.3°C 55.1°F12.8°C 80% 8.2 mph SE13.2 kmh SE 12.1 mph19.5 kmh 29.44 in997.0 mb 0.00 in0.0 mm 0.00 in0.0 mm 0.01 in0.3 mm
10:30 AM 61.7°F16.5°C 55.5°F13.1°C 80% 8.4 mph SE13.5 kmh SE 11.4 mph18.3 kmh 29.44 in997.0 mb 0.00 in0.0 mm 0.00 in0.0 mm 0.01 in0.3 mm
11:00 AM 60.6°F15.9°C 56.4°F13.6°C 86% 6.0 mph SE9.7 kmh SE 7.6 mph12.2 kmh 29.43 in996.6 mb 0.01 in0.3 mm 0.02 in0.5 mm 0.02 in0.5 mm
11:15 AM 60.1°F15.6°C 57.2°F14.0°C 90% 5.4 mph S8.7 kmh S 7.6 mph12.2 kmh 29.42 in996.3 mb 0.01 in0.3 mm 0.00 in0.0 mm 0.02 in0.5 mm
11:45 AM 60.3°F15.7°C 57.6°F14.2°C 91% 4.9 mph SE7.9 kmh SE 7.6 mph12.2 kmh 29.42 in996.3 mb 0.02 in0.5 mm 0.02 in0.5 mm 0.04 in1.0 mm
12:00 PM 60.1°F15.6°C 57.5°F14.2°C 91% 4.2 mph S6.8 kmh S 6.0 mph9.7 kmh 29.41 in995.9 mb 0.04 in1.0 mm 0.03 in0.8 mm 0.06 in1.5 mm
12:15 PM 60.3°F15.7°C 57.9°F14.4°C 92% 3.7 mph SE6.0 kmh SE 5.4 mph8.7 kmh 29.41 in995.9 mb 0.05 in1.3 mm 0.04 in1.0 mm 0.07 in1.8 mm
12:30 PM 60.4°F15.8°C 58.1°F14.5°C 92% 2.8 mph NE4.5 kmh NE 3.8 mph6.1 kmh 29.40 in995.6 mb 0.05 in1.3 mm 0.00 in0.0 mm 0.07 in1.8 mm
01:00 PM 60.3°F15.7°C 58.2°F14.6°C 93% 2.3 mph SW3.7 kmh SW 4.5 mph7.2 kmh 29.39 in995.3 mb 0.04 in1.0 mm 0.00 in0.0 mm 0.09 in2.3 mm
01:15 PM 61.7°F16.5°C 59.4°F15.2°C 92% 3.0 mph SE4.8 kmh SE 5.4 mph8.7 kmh 29.39 in995.3 mb 0.04 in1.0 mm 0.00 in0.0 mm 0.11 in2.8 mm
01:30 PM 61.3°F16.3°C 58.7°F14.8°C 91% 3.0 mph WSW4.8 kmh WSW 4.5 mph7.2 kmh 29.38 in994.9 mb 0.05 in1.3 mm 0.04 in1.0 mm 0.12 in3.0 mm
01:45 PM 61.9°F16.6°C 59.2°F15.1°C 91% 1.6 mph SW2.6 kmh SW 3.1 mph5.0 kmh 29.38 in994.9 mb 0.05 in1.3 mm 0.00 in0.0 mm 0.13 in3.3 mm
02:00 PM 62.6°F17.0°C 59.6°F15.3°C 90% 1.3 mph NNE2.1 kmh NNE 1.6 mph2.6 kmh 29.38 in994.9 mb 0.04 in1.0 mm 0.00 in0.0 mm 0.14 in3.6 mm
02:15 PM 62.8°F17.1°C 59.8°F15.4°C 90% 1.0 mph WSW1.6 kmh WSW 3.1 mph5.0 kmh 29.37 in994.6 mb 0.04 in1.0 mm 0.00 in0.0 mm 0.14 in3.6 mm
02:45 PM 64.6°F18.1°C 61.6°F16.4°C 90% 0.5 mph SW0.8 kmh SW 1.6 mph2.6 kmh 29.37 in994.6 mb 0.02 in0.5 mm 0.00 in0.0 mm 0.15 in3.8 mm
03:00 PM 64.8°F18.2°C 62.1°F16.7°C 91% 1.4 mph NNE2.3 kmh NNE 3.1 mph5.0 kmh 29.37 in994.6 mb 0.01 in0.3 mm 0.00 in0.0 mm 0.15 in3.8 mm
03:15 PM 64.9°F18.3°C 62.0°F16.7°C 90% 0.5 mph SW0.8 kmh SW 2.2 mph3.5 kmh 29.37 in994.6 mb 0.01 in0.3 mm 0.00 in0.0 mm 0.15 in3.8 mm
03:30 PM 65.1°F18.4°C 62.5°F16.9°C 91% 0.8 mph NE1.3 kmh NE 2.2 mph3.5 kmh 29.37 in994.6 mb 0.02 in0.5 mm 0.04 in1.0 mm 0.17 in4.3 mm
03:45 PM 64.6°F18.1°C 61.9°F16.6°C 91% 1.6 mph NNE2.6 kmh NNE 3.1 mph5.0 kmh 29.37 in994.6 mb 0.04 in1.0 mm 0.08 in2.0 mm 0.19 in4.8 mm
04:15 PM 64.6°F18.1°C 62.2°F16.8°C 92% 2.2 mph S3.5 kmh S 4.5 mph7.2 kmh 29.37 in994.6 mb 0.05 in1.3 mm 0.02 in0.5 mm 0.20 in5.1 mm
04:30 PM 64.8°F18.2°C 62.4°F16.9°C 92% 2.2 mph ESE3.5 kmh ESE 4.5 mph7.2 kmh 29.38 in994.9 mb 0.04 in1.0 mm 0.00 in0.0 mm 0.20 in5.1 mm
04:45 PM 64.9°F18.3°C 62.6°F17.0°C 92% 1.1 mph SW1.8 kmh SW 3.1 mph5.0 kmh 29.37 in994.6 mb 0.01 in0.3 mm 0.00 in0.0 mm 0.20 in5.1 mm
05:00 PM 65.1°F18.4°C 62.8°F17.1°C 92% 1.2 mph S1.9 kmh S 2.2 mph3.5 kmh 29.38 in994.9 mb 0.01 in0.3 mm 0.00 in0.0 mm 0.20 in5.1 mm
05:15 PM 65.3°F18.5°C 62.9°F17.2°C 92% 1.3 mph WSW2.1 kmh WSW 2.2 mph3.5 kmh 29.38 in994.9 mb 0.00 in0.0 mm 0.00 in0.0 mm 0.20 in5.1 mm
05:30 PM 65.1°F18.4°C 62.8°F17.1°C 92% 0.5 mph NW0.8 kmh NW 2.2 mph3.5 kmh 29.39 in995.3 mb 0.00 in0.0 mm 0.00 in0.0 mm 0.20 in5.1 mm
05:45 PM 64.9°F18.3°C 62.6°F17.0°C 92% 1.2 mph NNW1.9 kmh NNW 3.1 mph5.0 kmh 29.39 in995.3 mb 0.00 in0.0 mm 0.00 in0.0 mm 0.20 in5.1 mm
06:00 PM 63.5°F17.5°C 60.2°F15.7°C 89% 1.7 mph WNW2.7 kmh WNW 3.8 mph6.1 kmh 29.41 in995.9 mb 0.00 in0.0 mm 0.00 in0.0 mm 0.20 in5.1 mm
06:15 PM 62.2°F16.8°C 59.3°F15.2°C 90% 2.6 mph WSW4.2 kmh WSW 4.5 mph7.2 kmh 29.42 in996.3 mb 0.01 in0.3 mm 0.04 in1.0 mm 0.21 in5.3 mm
06:30 PM 60.4°F15.8°C 58.1°F14.5°C 92% 2.5 mph SW4.0 kmh SW 3.8 mph6.1 kmh 29.43 in996.6 mb 0.02 in0.5 mm 0.04 in1.0 mm 0.22 in5.6 mm
06:45 PM 59.7°F15.4°C 57.4°F14.1°C 92% 2.8 mph SW4.5 kmh SW 4.5 mph7.2 kmh 29.45 in997.3 mb 0.02 in0.5 mm 0.00 in0.0 mm 0.22 in5.6 mm
07:00 PM 59.4°F15.2°C 57.0°F13.9°C 92% 3.7 mph SW6.0 kmh SW 4.5 mph7.2 kmh 29.45 in997.3 mb 0.02 in0.5 mm 0.00 in0.0 mm 0.22 in5.6 mm
07:15 PM 58.1°F14.5°C 56.1°F13.4°C 93% 3.3 mph SSE5.3 kmh SSE 4.5 mph7.2 kmh 29.47 in998.0 mb 0.01 in0.3 mm 0.00 in0.0 mm 0.22 in5.6 mm
07:30 PM 57.2°F14.0°C 55.2°F12.9°C 93% 4.2 mph SW6.8 kmh SW 6.0 mph9.7 kmh 29.47 in998.0 mb 0.00 in0.0 mm 0.00 in0.0 mm 0.22 in5.6 mm
07:45 PM 56.5°F13.6°C 54.8°F12.7°C 94% 2.2 mph SSW3.5 kmh SSW 3.1 mph5.0 kmh 29.48 in998.3 mb 0.00 in0.0 mm 0.00 in0.0 mm 0.22 in5.6 mm
08:15 PM 55.0°F12.8°C 53.1°F11.7°C 93% 2.0 mph S3.2 kmh S 4.5 mph7.2 kmh 29.50 in999.0 mb 0.00 in0.0 mm 0.00 in0.0 mm 0.22 in5.6 mm
08:30 PM 54.5°F12.5°C 52.2°F11.2°C 92% 1.5 mph WSW2.4 kmh WSW 2.2 mph3.5 kmh 29.52 in999.7 mb 0.00 in0.0 mm 0.00 in0.0 mm 0.22 in5.6 mm
08:45 PM 54.0°F12.2°C 51.4°F10.8°C 91% 1.0 mph W1.6 kmh W 1.6 mph2.6 kmh 29.52 in999.7 mb 0.00 in0.0 mm 0.00 in0.0 mm 0.22 in5.6 mm
09:00 PM 53.8°F12.1°C 51.5°F10.8°C 92% 1.2 mph WNW1.9 kmh WNW 2.2 mph3.5 kmh 29.53 in1000.0 mb 0.00 in0.0 mm 0.00 in0.0 mm 0.22 in5.6 mm
09:15 PM 53.2°F11.8°C 51.6°F10.9°C 94% 1.3 mph N2.1 kmh N 3.1 mph5.0 kmh 29.54 in1000.3 mb 0.00 in0.0 mm 0.00 in0.0 mm 0.22 in5.6 mm
09:30 PM 52.3°F11.3°C 50.7°F10.4°C 94% 1.3 mph SW2.1 kmh SW 2.2 mph3.5 kmh 29.55 in1000.7 mb 0.00 in0.0 mm 0.00 in0.0 mm 0.22 in5.6 mm
09:45 PM 52.2°F11.2°C 50.5°F10.3°C 94% 0.3 mph N0.5 kmh N 0.7 mph1.1 kmh 29.55 in1000.7 mb 0.00 in0.0 mm 0.00 in0.0 mm 0.22 in5.6 mm
10:15 PM 51.1°F10.6°C 50.0°F10.0°C 96% 0.4 mph SSW0.6 kmh SSW 1.6 mph2.6 kmh 29.57 in1001.4 mb 0.00 in0.0 mm 0.00 in0.0 mm 0.22 in5.6 mm
10:30 PM 50.7°F10.4°C 49.6°F9.8°C 96% 0.3 mph W0.5 kmh W 0.7 mph1.1 kmh 29.57 in1001.4 mb 0.00 in0.0 mm 0.00 in0.0 mm 0.22 in5.6 mm
10:45 PM 50.4°F10.2°C 49.3°F9.6°C 96% 0.2 mph SW0.3 kmh SW 0.7 mph1.1 kmh 29.58 in1001.7 mb 0.00 in0.0 mm 0.00 in0.0 mm 0.22 in5.6 mm
11:00 PM 49.8°F9.9°C 49.3°F9.6°C 98% 0.1 mph SW0.2 kmh SW 0.7 mph1.1 kmh 29.59 in1002.0 mb 0.00 in0.0 mm 0.00 in0.0 mm 0.13 in3.3 mm
11:15 PM 48.9°F9.4°C 48.4°F9.1°C 98% 0.1 mph W0.2 kmh W 0.7 mph1.1 kmh 29.60 in1002.4 mb 0.00 in0.0 mm 0.00 in0.0 mm 0.13 in3.3 mm
11:30 PM 48.9°F9.4°C 48.4°F9.1°C 98% Calm Calm -- 29.60 in1002.4 mb 0.00 in0.0 mm 0.00 in0.0 mm 0.13 in3.3 mm